sensor_id;sensor_type;location;lat;lon;timestamp;P1;durP1;ratioP1;P2;durP2;ratioP2
46815;SDS011;32787;53.316;8.670;2022-09-11T00:01:05;18.30;;;12.18;;
46815;SDS011;32787;53.316;8.670;2022-09-11T00:03:31;15.88;;;11.13;;
46815;SDS011;32787;53.316;8.670;2022-09-11T00:06:04;19.60;;;13.82;;
46815;SDS011;32787;53.316;8.670;2022-09-11T00:08:34;22.15;;;15.10;;
46815;SDS011;32787;53.316;8.670;2022-09-11T00:11:02;23.05;;;15.65;;
46815;SDS011;32787;53.316;8.670;2022-09-11T00:13:33;21.45;;;15.88;;
46815;SDS011;32787;53.316;8.670;2022-09-11T00:16:00;15.43;;;11.55;;
46815;SDS011;32787;53.316;8.670;2022-09-11T00:18:27;19.85;;;9.25;;
46815;SDS011;32787;53.316;8.670;2022-09-11T00:20:54;13.63;;;9.20;;
46815;SDS011;32787;53.316;8.670;2022-09-11T00:23:23;19.92;;;10.13;;
46815;SDS011;32787;53.316;8.670;2022-09-11T00:25:50;17.77;;;12.52;;
46815;SDS011;32787;53.316;8.670;2022-09-11T00:28:16;18.48;;;13.02;;
46815;SDS011;32787;53.316;8.670;2022-09-11T00:30:55;11.82;;;8.57;;
46815;SDS011;32787;53.316;8.670;2022-09-11T00:33:22;13.82;;;9.07;;
46815;SDS011;32787;53.316;8.670;2022-09-11T00:35:52;14.25;;;10.45;;
46815;SDS011;32787;53.316;8.670;2022-09-11T00:38:27;14.25;;;11.02;;
46815;SDS011;32787;53.316;8.670;2022-09-11T00:40:54;14.40;;;10.15;;
46815;SDS011;32787;53.316;8.670;2022-09-11T00:43:22;15.13;;;10.40;;
46815;SDS011;32787;53.316;8.670;2022-09-11T00:45:52;20.15;;;13.82;;
46815;SDS011;32787;53.316;8.670;2022-09-11T00:48:22;14.73;;;10.55;;
46815;SDS011;32787;53.316;8.670;2022-09-11T00:50:50;17.02;;;10.20;;
46815;SDS011;32787;53.316;8.670;2022-09-11T00:53:18;18.30;;;12.63;;
46815;SDS011;32787;53.316;8.670;2022-09-11T00:55:48;16.67;;;11.90;;
46815;SDS011;32787;53.316;8.670;2022-09-11T00:58:19;18.67;;;11.95;;
46815;SDS011;32787;53.316;8.670;2022-09-11T01:00:48;18.15;;;12.20;;
46815;SDS011;32787;53.316;8.670;2022-09-11T01:03:18;21.02;;;15.38;;
46815;SDS011;32787;53.316;8.670;2022-09-11T01:05:44;18.00;;;14.02;;
46815;SDS011;32787;53.316;8.670;2022-09-11T01:08:12;20.55;;;14.52;;
46815;SDS011;32787;53.316;8.670;2022-09-11T01:19:05;21.50;;;15.05;;
46815;SDS011;32787;53.316;8.670;2022-09-11T01:24:24;21.58;;;14.25;;
46815;SDS011;32787;53.316;8.670;2022-09-11T01:26:52;21.52;;;14.98;;
46815;SDS011;32787;53.316;8.670;2022-09-11T01:29:49;20.98;;;14.32;;
46815;SDS011;32787;53.316;8.670;2022-09-11T01:35:17;17.65;;;12.82;;
46815;SDS011;32787;53.316;8.670;2022-09-11T01:37:56;19.73;;;14.27;;
46815;SDS011;32787;53.316;8.670;2022-09-11T01:40:33;18.13;;;13.65;;
46815;SDS011;32787;53.316;8.670;2022-09-11T01:43:14;17.92;;;13.15;;
46815;SDS011;32787;53.316;8.670;2022-09-11T01:45:46;21.00;;;14.20;;
46815;SDS011;32787;53.316;8.670;2022-09-11T01:48:15;18.65;;;13.77;;
46815;SDS011;32787;53.316;8.670;2022-09-11T01:50:45;20.50;;;13.05;;
46815;SDS011;32787;53.316;8.670;2022-09-11T01:53:14;17.75;;;13.68;;
46815;SDS011;32787;53.316;8.670;2022-09-11T01:55:47;18.88;;;12.95;;
46815;SDS011;32787;53.316;8.670;2022-09-11T01:58:25;19.75;;;12.15;;
46815;SDS011;32787;53.316;8.670;2022-09-11T02:00:55;19.35;;;11.18;;
46815;SDS011;32787;53.316;8.670;2022-09-11T02:04:02;15.20;;;11.43;;
46815;SDS011;32787;53.316;8.670;2022-09-11T02:06:52;13.40;;;10.05;;
46815;SDS011;32787;53.316;8.670;2022-09-11T02:09:29;15.93;;;11.30;;
46815;SDS011;32787;53.316;8.670;2022-09-11T02:11:57;17.52;;;11.93;;
46815;SDS011;32787;53.316;8.670;2022-09-11T02:14:30;17.75;;;12.23;;
46815;SDS011;32787;53.316;8.670;2022-09-11T02:19:53;65.80;;;12.73;;
46815;SDS011;32787;53.316;8.670;2022-09-11T02:22:20;20.73;;;12.65;;
46815;SDS011;32787;53.316;8.670;2022-09-11T02:24:46;34.33;;;11.98;;
46815;SDS011;32787;53.316;8.670;2022-09-11T02:27:13;14.35;;;10.60;;
46815;SDS011;32787;53.316;8.670;2022-09-11T02:29:42;15.77;;;9.98;;
46815;SDS011;32787;53.316;8.670;2022-09-11T02:32:08;22.17;;;12.93;;
46815;SDS011;32787;53.316;8.670;2022-09-11T02:34:37;20.15;;;11.55;;
46815;SDS011;32787;53.316;8.670;2022-09-11T02:45:12;13.32;;;8.20;;
46815;SDS011;32787;53.316;8.670;2022-09-11T02:56:31;19.08;;;11.20;;
46815;SDS011;32787;53.316;8.670;2022-09-11T02:59:08;18.65;;;10.68;;
46815;SDS011;32787;53.316;8.670;2022-09-11T03:01:59;18.90;;;11.27;;
46815;SDS011;32787;53.316;8.670;2022-09-11T03:04:26;16.55;;;11.50;;
46815;SDS011;32787;53.316;8.670;2022-09-11T03:06:53;19.55;;;10.40;;
46815;SDS011;32787;53.316;8.670;2022-09-11T03:09:20;37.47;;;11.05;;
46815;SDS011;32787;53.316;8.670;2022-09-11T03:11:46;19.48;;;12.55;;
46815;SDS011;32787;53.316;8.670;2022-09-11T03:14:13;12.65;;;9.48;;
46815;SDS011;32787;53.316;8.670;2022-09-11T03:16:39;13.30;;;9.82;;
46815;SDS011;32787;53.316;8.670;2022-09-11T03:19:05;15.88;;;10.75;;
46815;SDS011;32787;53.316;8.670;2022-09-11T03:21:31;19.40;;;12.05;;
46815;SDS011;32787;53.316;8.670;2022-09-11T03:23:59;18.92;;;12.63;;
46815;SDS011;32787;53.316;8.670;2022-09-11T03:26:25;20.38;;;11.85;;
46815;SDS011;32787;53.316;8.670;2022-09-11T03:28:51;18.38;;;12.50;;
46815;SDS011;32787;53.316;8.670;2022-09-11T03:31:17;17.25;;;12.20;;
46815;SDS011;32787;53.316;8.670;2022-09-11T03:33:43;19.20;;;12.77;;
46815;SDS011;32787;53.316;8.670;2022-09-11T03:36:09;17.00;;;11.45;;
46815;SDS011;32787;53.316;8.670;2022-09-11T03:38:35;24.70;;;12.65;;
46815;SDS011;32787;53.316;8.670;2022-09-11T03:41:01;20.20;;;12.60;;
46815;SDS011;32787;53.316;8.670;2022-09-11T03:43:27;23.77;;;12.80;;
46815;SDS011;32787;53.316;8.670;2022-09-11T03:45:53;20.48;;;11.98;;
46815;SDS011;32787;53.316;8.670;2022-09-11T03:48:19;21.52;;;11.82;;
46815;SDS011;32787;53.316;8.670;2022-09-11T03:50:44;21.58;;;12.75;;
46815;SDS011;32787;53.316;8.670;2022-09-11T03:53:11;25.90;;;12.77;;
46815;SDS011;32787;53.316;8.670;2022-09-11T03:55:39;33.95;;;13.70;;
46815;SDS011;32787;53.316;8.670;2022-09-11T03:58:05;23.08;;;12.88;;
46815;SDS011;32787;53.316;8.670;2022-09-11T04:00:31;21.35;;;12.82;;
46815;SDS011;32787;53.316;8.670;2022-09-11T04:02:57;26.15;;;12.82;;
46815;SDS011;32787;53.316;8.670;2022-09-11T04:05:24;21.67;;;13.43;;
46815;SDS011;32787;53.316;8.670;2022-09-11T04:07:50;21.88;;;12.20;;
46815;SDS011;32787;53.316;8.670;2022-09-11T04:10:17;16.60;;;11.93;;
46815;SDS011;32787;53.316;8.670;2022-09-11T04:12:44;28.20;;;12.73;;
46815;SDS011;32787;53.316;8.670;2022-09-11T04:15:10;30.38;;;13.52;;
46815;SDS011;32787;53.316;8.670;2022-09-11T04:17:35;34.58;;;14.90;;
46815;SDS011;32787;53.316;8.670;2022-09-11T04:20:02;32.35;;;13.45;;
46815;SDS011;32787;53.316;8.670;2022-09-11T04:22:28;28.35;;;13.63;;
46815;SDS011;32787;53.316;8.670;2022-09-11T04:24:54;20.45;;;13.27;;
46815;SDS011;32787;53.316;8.670;2022-09-11T04:27:21;23.80;;;13.32;;
46815;SDS011;32787;53.316;8.670;2022-09-11T04:29:47;39.00;;;14.45;;
46815;SDS011;32787;53.316;8.670;2022-09-11T04:32:13;27.88;;;14.07;;
46815;SDS011;32787;53.316;8.670;2022-09-11T04:34:39;23.98;;;13.50;;
46815;SDS011;32787;53.316;8.670;2022-09-11T04:37:05;29.02;;;14.38;;
46815;SDS011;32787;53.316;8.670;2022-09-11T04:39:30;25.77;;;13.70;;
46815;SDS011;32787;53.316;8.670;2022-09-11T04:41:56;21.05;;;13.48;;
46815;SDS011;32787;53.316;8.670;2022-09-11T04:44:22;16.33;;;12.60;;
46815;SDS011;32787;53.316;8.670;2022-09-11T04:46:49;20.50;;;12.32;;
46815;SDS011;32787;53.316;8.670;2022-09-11T04:49:14;22.42;;;13.55;;
46815;SDS011;32787;53.316;8.670;2022-09-11T04:51:41;24.45;;;12.80;;
46815;SDS011;32787;53.316;8.670;2022-09-11T04:54:08;28.20;;;13.63;;
46815;SDS011;32787;53.316;8.670;2022-09-11T04:56:40;30.35;;;13.52;;
46815;SDS011;32787;53.316;8.670;2022-09-11T04:59:13;32.92;;;13.65;;
46815;SDS011;32787;53.316;8.670;2022-09-11T05:01:42;18.00;;;12.50;;
46815;SDS011;32787;53.316;8.670;2022-09-11T05:04:11;19.38;;;12.75;;
46815;SDS011;32787;53.316;8.670;2022-09-11T05:06:38;25.10;;;12.90;;
46815;SDS011;32787;53.316;8.670;2022-09-11T05:09:04;26.60;;;13.85;;
46815;SDS011;32787;53.316;8.670;2022-09-11T05:11:32;22.92;;;12.55;;
46815;SDS011;32787;53.316;8.670;2022-09-11T05:13:58;32.40;;;14.13;;
46815;SDS011;32787;53.316;8.670;2022-09-11T05:16:24;26.48;;;14.05;;
46815;SDS011;32787;53.316;8.670;2022-09-11T05:18:51;26.20;;;14.95;;
46815;SDS011;32787;53.316;8.670;2022-09-11T05:21:18;21.17;;;13.75;;
46815;SDS011;32787;53.316;8.670;2022-09-11T05:23:50;25.00;;;14.35;;
46815;SDS011;32787;53.316;8.670;2022-09-11T05:26:19;18.15;;;13.88;;
46815;SDS011;32787;53.316;8.670;2022-09-11T05:28:59;22.92;;;14.25;;
46815;SDS011;32787;53.316;8.670;2022-09-11T05:31:28;28.85;;;14.07;;
46815;SDS011;32787;53.316;8.670;2022-09-11T05:33:55;19.27;;;13.90;;
46815;SDS011;32787;53.316;8.670;2022-09-11T05:36:23;23.65;;;13.98;;
46815;SDS011;32787;53.316;8.670;2022-09-11T05:38:49;26.17;;;14.07;;
46815;SDS011;32787;53.316;8.670;2022-09-11T05:41:16;25.27;;;14.88;;
46815;SDS011;32787;53.316;8.670;2022-09-11T05:43:41;24.33;;;14.23;;
46815;SDS011;32787;53.316;8.670;2022-09-11T05:46:09;25.50;;;14.82;;
46815;SDS011;32787;53.316;8.670;2022-09-11T05:48:37;21.27;;;13.40;;
46815;SDS011;32787;53.316;8.670;2022-09-11T05:51:04;24.15;;;14.88;;
46815;SDS011;32787;53.316;8.670;2022-09-11T05:53:41;35.25;;;14.80;;
46815;SDS011;32787;53.316;8.670;2022-09-11T05:56:17;26.20;;;14.10;;
46815;SDS011;32787;53.316;8.670;2022-09-11T05:58:45;23.23;;;14.10;;
46815;SDS011;32787;53.316;8.670;2022-09-11T06:01:21;21.67;;;13.65;;
46815;SDS011;32787;53.316;8.670;2022-09-11T06:03:48;31.42;;;15.05;;
46815;SDS011;32787;53.316;8.670;2022-09-11T06:06:15;34.35;;;14.93;;
46815;SDS011;32787;53.316;8.670;2022-09-11T06:08:42;35.28;;;15.23;;
46815;SDS011;32787;53.316;8.670;2022-09-11T06:11:08;34.58;;;14.15;;
46815;SDS011;32787;53.316;8.670;2022-09-11T06:13:39;30.42;;;14.00;;
46815;SDS011;32787;53.316;8.670;2022-09-11T06:16:08;35.30;;;14.82;;
46815;SDS011;32787;53.316;8.670;2022-09-11T06:18:35;40.13;;;15.32;;
46815;SDS011;32787;53.316;8.670;2022-09-11T06:21:01;31.63;;;15.23;;
46815;SDS011;32787;53.316;8.670;2022-09-11T06:23:32;46.33;;;16.05;;
46815;SDS011;32787;53.316;8.670;2022-09-11T06:26:07;35.22;;;15.82;;
46815;SDS011;32787;53.316;8.670;2022-09-11T06:28:37;37.58;;;15.48;;
46815;SDS011;32787;53.316;8.670;2022-09-11T06:31:04;32.05;;;15.07;;
46815;SDS011;32787;53.316;8.670;2022-09-11T06:33:31;26.92;;;15.88;;
46815;SDS011;32787;53.316;8.670;2022-09-11T06:36:14;38.70;;;16.40;;
46815;SDS011;32787;53.316;8.670;2022-09-11T06:38:41;32.42;;;16.48;;
46815;SDS011;32787;53.316;8.670;2022-09-11T06:41:09;35.00;;;16.25;;
46815;SDS011;32787;53.316;8.670;2022-09-11T06:43:38;31.70;;;17.08;;
46815;SDS011;32787;53.316;8.670;2022-09-11T06:46:04;27.50;;;16.58;;
46815;SDS011;32787;53.316;8.670;2022-09-11T06:48:41;27.52;;;16.55;;
46815;SDS011;32787;53.316;8.670;2022-09-11T06:51:09;28.48;;;16.58;;
46815;SDS011;32787;53.316;8.670;2022-09-11T06:53:36;27.90;;;17.30;;
46815;SDS011;32787;53.316;8.670;2022-09-11T06:56:02;28.77;;;17.92;;
46815;SDS011;32787;53.316;8.670;2022-09-11T06:58:29;30.35;;;18.58;;
46815;SDS011;32787;53.316;8.670;2022-09-11T07:00:55;32.92;;;19.65;;
46815;SDS011;32787;53.316;8.670;2022-09-11T07:03:30;29.23;;;18.83;;
46815;SDS011;32787;53.316;8.670;2022-09-11T07:05:56;27.67;;;17.15;;
46815;SDS011;32787;53.316;8.670;2022-09-11T07:08:22;31.70;;;18.88;;
46815;SDS011;32787;53.316;8.670;2022-09-11T07:10:48;32.60;;;19.48;;
46815;SDS011;32787;53.316;8.670;2022-09-11T07:13:14;31.17;;;19.65;;
46815;SDS011;32787;53.316;8.670;2022-09-11T07:15:39;29.17;;;18.33;;
46815;SDS011;32787;53.316;8.670;2022-09-11T07:18:06;28.92;;;19.10;;
46815;SDS011;32787;53.316;8.670;2022-09-11T07:20:32;30.10;;;19.38;;
46815;SDS011;32787;53.316;8.670;2022-09-11T07:22:58;29.35;;;18.60;;
46815;SDS011;32787;53.316;8.670;2022-09-11T07:25:24;29.52;;;18.42;;
46815;SDS011;32787;53.316;8.670;2022-09-11T07:27:50;25.75;;;16.67;;
46815;SDS011;32787;53.316;8.670;2022-09-11T07:30:19;22.88;;;15.32;;
46815;SDS011;32787;53.316;8.670;2022-09-11T07:32:44;23.98;;;16.40;;
46815;SDS011;32787;53.316;8.670;2022-09-11T07:35:10;20.67;;;14.35;;
46815;SDS011;32787;53.316;8.670;2022-09-11T07:37:36;24.65;;;15.10;;
46815;SDS011;32787;53.316;8.670;2022-09-11T07:40:03;21.38;;;15.48;;
46815;SDS011;32787;53.316;8.670;2022-09-11T07:42:29;22.50;;;15.35;;
46815;SDS011;32787;53.316;8.670;2022-09-11T07:44:54;23.50;;;15.90;;
46815;SDS011;32787;53.316;8.670;2022-09-11T07:47:20;25.08;;;16.50;;
46815;SDS011;32787;53.316;8.670;2022-09-11T07:49:46;26.40;;;16.80;;
46815;SDS011;32787;53.316;8.670;2022-09-11T07:52:13;24.58;;;16.30;;
46815;SDS011;32787;53.316;8.670;2022-09-11T07:54:39;22.17;;;15.35;;
46815;SDS011;32787;53.316;8.670;2022-09-11T07:57:05;24.38;;;16.75;;
46815;SDS011;32787;53.316;8.670;2022-09-11T07:59:31;24.30;;;16.70;;
46815;SDS011;32787;53.316;8.670;2022-09-11T08:01:57;22.65;;;15.35;;
46815;SDS011;32787;53.316;8.670;2022-09-11T08:04:23;23.90;;;16.55;;
46815;SDS011;32787;53.316;8.670;2022-09-11T08:06:49;22.92;;;16.50;;
46815;SDS011;32787;53.316;8.670;2022-09-11T08:09:14;22.23;;;16.30;;
46815;SDS011;32787;53.316;8.670;2022-09-11T08:11:42;23.50;;;16.27;;
46815;SDS011;32787;53.316;8.670;2022-09-11T08:14:12;21.48;;;15.63;;
46815;SDS011;32787;53.316;8.670;2022-09-11T08:16:39;21.40;;;15.93;;
46815;SDS011;32787;53.316;8.670;2022-09-11T08:19:06;20.42;;;15.80;;
46815;SDS011;32787;53.316;8.670;2022-09-11T08:21:32;21.73;;;16.50;;
46815;SDS011;32787;53.316;8.670;2022-09-11T08:23:58;21.45;;;15.85;;
46815;SDS011;32787;53.316;8.670;2022-09-11T08:26:25;19.67;;;14.77;;
46815;SDS011;32787;53.316;8.670;2022-09-11T08:28:53;20.13;;;13.88;;
46815;SDS011;32787;53.316;8.670;2022-09-11T08:31:20;18.45;;;13.57;;
46815;SDS011;32787;53.316;8.670;2022-09-11T08:33:49;20.48;;;13.18;;
46815;SDS011;32787;53.316;8.670;2022-09-11T08:36:15;17.45;;;12.45;;
46815;SDS011;32787;53.316;8.670;2022-09-11T08:38:46;15.40;;;10.68;;
46815;SDS011;32787;53.316;8.670;2022-09-11T08:43:50;12.77;;;9.55;;
46815;SDS011;32787;53.316;8.670;2022-09-11T08:46:35;13.52;;;8.55;;
46815;SDS011;32787;53.316;8.670;2022-09-11T08:52:16;11.50;;;8.35;;
46815;SDS011;32787;53.316;8.670;2022-09-11T08:54:56;13.25;;;7.82;;
46815;SDS011;32787;53.316;8.670;2022-09-11T09:17:31;10.52;;;8.65;;
46815;SDS011;32787;53.316;8.670;2022-09-11T09:20:04;13.13;;;9.32;;
46815;SDS011;32787;53.316;8.670;2022-09-11T09:22:47;12.73;;;9.48;;
46815;SDS011;32787;53.316;8.670;2022-09-11T09:25:20;11.50;;;8.98;;
46815;SDS011;32787;53.316;8.670;2022-09-11T09:27:48;10.05;;;8.27;;
46815;SDS011;32787;53.316;8.670;2022-09-11T09:30:21;9.55;;;7.47;;
46815;SDS011;32787;53.316;8.670;2022-09-11T09:32:56;8.55;;;6.30;;
46815;SDS011;32787;53.316;8.670;2022-09-11T09:35:40;9.18;;;7.05;;
46815;SDS011;32787;53.316;8.670;2022-09-11T09:40:46;6.13;;;3.92;;
46815;SDS011;32787;53.316;8.670;2022-09-11T09:49:09;7.55;;;5.15;;
46815;SDS011;32787;53.316;8.670;2022-09-11T09:51:38;6.88;;;4.72;;
46815;SDS011;32787;53.316;8.670;2022-09-11T09:54:04;7.15;;;4.72;;
46815;SDS011;32787;53.316;8.670;2022-09-11T09:56:34;8.32;;;4.93;;
46815;SDS011;32787;53.316;8.670;2022-09-11T09:59:10;5.72;;;3.38;;
46815;SDS011;32787;53.316;8.670;2022-09-11T10:01:51;6.40;;;3.50;;
46815;SDS011;32787;53.316;8.670;2022-09-11T10:04:19;6.68;;;3.42;;
46815;SDS011;32787;53.316;8.670;2022-09-11T10:06:48;5.82;;;3.22;;
46815;SDS011;32787;53.316;8.670;2022-09-11T10:09:25;6.85;;;3.38;;
46815;SDS011;32787;53.316;8.670;2022-09-11T10:11:53;6.75;;;3.60;;
46815;SDS011;32787;53.316;8.670;2022-09-11T10:14:20;6.25;;;3.47;;
46815;SDS011;32787;53.316;8.670;2022-09-11T10:16:49;4.32;;;1.88;;
46815;SDS011;32787;53.316;8.670;2022-09-11T10:22:39;3.85;;;2.20;;
46815;SDS011;32787;53.316;8.670;2022-09-11T10:27:31;5.25;;;2.83;;
46815;SDS011;32787;53.316;8.670;2022-09-11T10:30:03;3.85;;;2.30;;
46815;SDS011;32787;53.316;8.670;2022-09-11T10:32:29;4.25;;;2.30;;
46815;SDS011;32787;53.316;8.670;2022-09-11T10:34:56;4.57;;;2.30;;
46815;SDS011;32787;53.316;8.670;2022-09-11T10:37:27;5.53;;;2.00;;
46815;SDS011;32787;53.316;8.670;2022-09-11T10:40:03;7.82;;;2.00;;
46815;SDS011;32787;53.316;8.670;2022-09-11T10:42:32;4.30;;;1.80;;
46815;SDS011;32787;53.316;8.670;2022-09-11T10:45:32;6.40;;;1.60;;
46815;SDS011;32787;53.316;8.670;2022-09-11T10:47:51;4.75;;;1.90;;
46815;SDS011;32787;53.316;8.670;2022-09-11T10:53:16;7.18;;;1.80;;
46815;SDS011;32787;53.316;8.670;2022-09-11T10:55:49;3.45;;;1.55;;
46815;SDS011;32787;53.316;8.670;2022-09-11T10:58:21;5.35;;;1.98;;
46815;SDS011;32787;53.316;8.670;2022-09-11T11:00:49;3.30;;;1.65;;
46815;SDS011;32787;53.316;8.670;2022-09-11T11:03:16;3.90;;;1.45;;
46815;SDS011;32787;53.316;8.670;2022-09-11T11:11:46;3.50;;;1.30;;
46815;SDS011;32787;53.316;8.670;2022-09-11T11:14:44;3.40;;;1.45;;
46815;SDS011;32787;53.316;8.670;2022-09-11T11:23:14;3.45;;;1.52;;
46815;SDS011;32787;53.316;8.670;2022-09-11T11:28:59;4.15;;;1.55;;
46815;SDS011;32787;53.316;8.670;2022-09-11T11:31:58;3.72;;;1.88;;
46815;SDS011;32787;53.316;8.670;2022-09-11T11:37:39;4.43;;;1.48;;
46815;SDS011;32787;53.316;8.670;2022-09-11T11:40:16;4.43;;;1.48;;
46815;SDS011;32787;53.316;8.670;2022-09-11T11:43:02;3.40;;;1.50;;
46815;SDS011;32787;53.316;8.670;2022-09-11T11:45:31;2.90;;;1.42;;
46815;SDS011;32787;53.316;8.670;2022-09-11T11:48:07;3.90;;;1.40;;
46815;SDS011;32787;53.316;8.670;2022-09-11T11:50:40;3.25;;;1.42;;
46815;SDS011;32787;53.316;8.670;2022-09-11T11:53:19;6.47;;;1.50;;
46815;SDS011;32787;53.316;8.670;2022-09-11T12:06:53;3.53;;;1.27;;
46815;SDS011;32787;53.316;8.670;2022-09-11T12:09:19;3.28;;;1.50;;
46815;SDS011;32787;53.316;8.670;2022-09-11T12:11:45;3.15;;;1.27;;
46815;SDS011;32787;53.316;8.670;2022-09-11T12:14:32;3.47;;;1.30;;
46815;SDS011;32787;53.316;8.670;2022-09-11T12:32:43;3.10;;;1.33;;
46815;SDS011;32787;53.316;8.670;2022-09-11T12:35:17;3.28;;;1.10;;
46815;SDS011;32787;53.316;8.670;2022-09-11T12:40:37;2.20;;;0.82;;
46815;SDS011;32787;53.316;8.670;2022-09-11T12:43:30;3.05;;;1.10;;
46815;SDS011;32787;53.316;8.670;2022-09-11T12:46:12;2.38;;;1.17;;
46815;SDS011;32787;53.316;8.670;2022-09-11T12:48:44;1.77;;;0.82;;
46815;SDS011;32787;53.316;8.670;2022-09-11T12:51:30;2.22;;;0.80;;
46815;SDS011;32787;53.316;8.670;2022-09-11T12:54:11;2.00;;;0.90;;
46815;SDS011;32787;53.316;8.670;2022-09-11T12:56:48;2.40;;;0.90;;
46815;SDS011;32787;53.316;8.670;2022-09-11T12:59:23;2.53;;;0.80;;
46815;SDS011;32787;53.316;8.670;2022-09-11T13:01:54;1.48;;;0.70;;
46815;SDS011;32787;53.316;8.670;2022-09-11T13:04:22;2.05;;;0.60;;
46815;SDS011;32787;53.316;8.670;2022-09-11T13:06:54;1.80;;;0.73;;
46815;SDS011;32787;53.316;8.670;2022-09-11T13:09:30;1.88;;;0.70;;
46815;SDS011;32787;53.316;8.670;2022-09-11T13:14:49;0.93;;;0.65;;
46815;SDS011;32787;53.316;8.670;2022-09-11T13:22:29;1.08;;;0.52;;
46815;SDS011;32787;53.316;8.670;2022-09-11T13:27:37;2.30;;;0.70;;
46815;SDS011;32787;53.316;8.670;2022-09-11T13:30:06;1.60;;;0.60;;
46815;SDS011;32787;53.316;8.670;2022-09-11T13:32:32;0.77;;;0.47;;
46815;SDS011;32787;53.316;8.670;2022-09-11T13:35:01;1.55;;;0.80;;
46815;SDS011;32787;53.316;8.670;2022-09-11T13:37:39;2.88;;;0.73;;
46815;SDS011;32787;53.316;8.670;2022-09-11T13:40:21;1.95;;;0.80;;
46815;SDS011;32787;53.316;8.670;2022-09-11T13:42:52;1.30;;;0.60;;
46815;SDS011;32787;53.316;8.670;2022-09-11T13:45:18;1.15;;;0.55;;
46815;SDS011;32787;53.316;8.670;2022-09-11T13:47:46;1.50;;;0.70;;
46815;SDS011;32787;53.316;8.670;2022-09-11T13:50:13;1.52;;;0.70;;
46815;SDS011;32787;53.316;8.670;2022-09-11T13:52:41;1.92;;;0.70;;
46815;SDS011;32787;53.316;8.670;2022-09-11T13:55:09;1.17;;;0.50;;
46815;SDS011;32787;53.316;8.670;2022-09-11T13:57:55;1.00;;;0.50;;
46815;SDS011;32787;53.316;8.670;2022-09-11T14:00:45;1.60;;;0.70;;
46815;SDS011;32787;53.316;8.670;2022-09-11T14:03:27;1.40;;;0.60;;
46815;SDS011;32787;53.316;8.670;2022-09-11T14:05:56;2.35;;;0.80;;
46815;SDS011;32787;53.316;8.670;2022-09-11T14:08:28;0.95;;;0.60;;
46815;SDS011;32787;53.316;8.670;2022-09-11T14:11:09;2.35;;;0.80;;
46815;SDS011;32787;53.316;8.670;2022-09-11T14:13:45;1.63;;;0.60;;
46815;SDS011;32787;53.316;8.670;2022-09-11T14:21:18;1.15;;;0.60;;
46815;SDS011;32787;53.316;8.670;2022-09-11T14:23:50;1.38;;;0.50;;
46815;SDS011;32787;53.316;8.670;2022-09-11T14:26:19;0.60;;;0.47;;
46815;SDS011;32787;53.316;8.670;2022-09-11T14:31:40;1.10;;;0.70;;
46815;SDS011;32787;53.316;8.670;2022-09-11T14:34:21;2.55;;;0.80;;
46815;SDS011;32787;53.316;8.670;2022-09-11T14:37:08;2.60;;;0.70;;
46815;SDS011;32787;53.316;8.670;2022-09-11T14:39:39;1.00;;;0.50;;
46815;SDS011;32787;53.316;8.670;2022-09-11T14:42:14;1.50;;;0.60;;
46815;SDS011;32787;53.316;8.670;2022-09-11T14:44:46;1.52;;;0.60;;
46815;SDS011;32787;53.316;8.670;2022-09-11T14:47:19;1.17;;;0.73;;
46815;SDS011;32787;53.316;8.670;2022-09-11T14:49:47;3.40;;;0.65;;
46815;SDS011;32787;53.316;8.670;2022-09-11T14:52:16;1.70;;;0.70;;
46815;SDS011;32787;53.316;8.670;2022-09-11T14:54:44;1.42;;;0.77;;
46815;SDS011;32787;53.316;8.670;2022-09-11T14:57:12;1.63;;;0.70;;
46815;SDS011;32787;53.316;8.670;2022-09-11T14:59:47;1.77;;;0.80;;
46815;SDS011;32787;53.316;8.670;2022-09-11T15:02:23;1.42;;;0.60;;
46815;SDS011;32787;53.316;8.670;2022-09-11T15:04:51;2.20;;;0.70;;
46815;SDS011;32787;53.316;8.670;2022-09-11T15:07:18;1.95;;;0.70;;
46815;SDS011;32787;53.316;8.670;2022-09-11T15:09:49;1.00;;;0.53;;
46815;SDS011;32787;53.316;8.670;2022-09-11T15:12:17;1.55;;;0.70;;
46815;SDS011;32787;53.316;8.670;2022-09-11T15:14:43;1.60;;;0.60;;
46815;SDS011;32787;53.316;8.670;2022-09-11T15:17:10;1.73;;;0.60;;
46815;SDS011;32787;53.316;8.670;2022-09-11T15:19:39;1.58;;;0.68;;
46815;SDS011;32787;53.316;8.670;2022-09-11T15:22:05;1.77;;;0.70;;
46815;SDS011;32787;53.316;8.670;2022-09-11T15:24:32;0.95;;;0.52;;
46815;SDS011;32787;53.316;8.670;2022-09-11T15:26:58;2.05;;;0.80;;
46815;SDS011;32787;53.316;8.670;2022-09-11T15:29:25;2.88;;;0.75;;
46815;SDS011;32787;53.316;8.670;2022-09-11T15:31:51;1.27;;;0.73;;
46815;SDS011;32787;53.316;8.670;2022-09-11T15:34:20;1.10;;;0.70;;
46815;SDS011;32787;53.316;8.670;2022-09-11T15:36:47;1.52;;;0.68;;
46815;SDS011;32787;53.316;8.670;2022-09-11T15:39:16;1.90;;;0.60;;
46815;SDS011;32787;53.316;8.670;2022-09-11T15:41:43;2.67;;;0.60;;
46815;SDS011;32787;53.316;8.670;2022-09-11T15:44:10;1.08;;;0.57;;
46815;SDS011;32787;53.316;8.670;2022-09-11T15:46:44;1.13;;;0.60;;
46815;SDS011;32787;53.316;8.670;2022-09-11T15:49:10;1.40;;;0.85;;
46815;SDS011;32787;53.316;8.670;2022-09-11T15:51:36;1.90;;;0.90;;
46815;SDS011;32787;53.316;8.670;2022-09-11T15:54:03;4.28;;;1.17;;
46815;SDS011;32787;53.316;8.670;2022-09-11T15:56:28;1.75;;;0.70;;
46815;SDS011;32787;53.316;8.670;2022-09-11T15:58:57;1.52;;;0.63;;
46815;SDS011;32787;53.316;8.670;2022-09-11T16:01:28;1.65;;;0.70;;
46815;SDS011;32787;53.316;8.670;2022-09-11T16:03:57;1.48;;;0.60;;
46815;SDS011;32787;53.316;8.670;2022-09-11T16:06:25;1.83;;;0.80;;
46815;SDS011;32787;53.316;8.670;2022-09-11T16:08:56;1.92;;;0.80;;
46815;SDS011;32787;53.316;8.670;2022-09-11T16:11:23;1.90;;;0.80;;
46815;SDS011;32787;53.316;8.670;2022-09-11T16:13:50;1.58;;;0.73;;
46815;SDS011;32787;53.316;8.670;2022-09-11T16:16:18;2.75;;;0.80;;
46815;SDS011;32787;53.316;8.670;2022-09-11T16:18:45;1.30;;;0.60;;
46815;SDS011;32787;53.316;8.670;2022-09-11T16:21:12;2.03;;;0.88;;
46815;SDS011;32787;53.316;8.670;2022-09-11T16:23:39;2.45;;;0.75;;
46815;SDS011;32787;53.316;8.670;2022-09-11T16:26:08;2.10;;;0.80;;
46815;SDS011;32787;53.316;8.670;2022-09-11T16:28:41;1.58;;;0.75;;
46815;SDS011;32787;53.316;8.670;2022-09-11T16:31:07;1.70;;;0.70;;
46815;SDS011;32787;53.316;8.670;2022-09-11T16:33:35;1.20;;;0.70;;
46815;SDS011;32787;53.316;8.670;2022-09-11T16:36:09;1.85;;;0.80;;
46815;SDS011;32787;53.316;8.670;2022-09-11T16:38:37;1.90;;;0.80;;
46815;SDS011;32787;53.316;8.670;2022-09-11T16:41:08;1.83;;;0.80;;
46815;SDS011;32787;53.316;8.670;2022-09-11T16:43:34;1.13;;;0.63;;
46815;SDS011;32787;53.316;8.670;2022-09-11T16:46:00;2.38;;;0.90;;
46815;SDS011;32787;53.316;8.670;2022-09-11T16:48:27;1.58;;;0.70;;
46815;SDS011;32787;53.316;8.670;2022-09-11T16:50:54;1.30;;;0.73;;
46815;SDS011;32787;53.316;8.670;2022-09-11T16:53:21;2.58;;;0.80;;
46815;SDS011;32787;53.316;8.670;2022-09-11T16:55:49;1.73;;;0.80;;
46815;SDS011;32787;53.316;8.670;2022-09-11T16:58:17;1.67;;;0.77;;
46815;SDS011;32787;53.316;8.670;2022-09-11T17:00:43;3.33;;;0.88;;
46815;SDS011;32787;53.316;8.670;2022-09-11T17:03:09;2.30;;;0.88;;
46815;SDS011;32787;53.316;8.670;2022-09-11T17:05:35;1.55;;;0.85;;
46815;SDS011;32787;53.316;8.670;2022-09-11T17:08:01;2.22;;;0.85;;
46815;SDS011;32787;53.316;8.670;2022-09-11T17:10:27;2.00;;;0.80;;
46815;SDS011;32787;53.316;8.670;2022-09-11T17:12:54;2.38;;;0.85;;